Terminal Aerodrome Forecast
Issued by NWS

Home | Current Version | Previous Version | Text Only | Print | Product List | Glossary On
Versions: 1 2 3 4 5 6 7 8 9 10 11 12 13
000
FTUS43 KEAX 121700
TAFSTJ
TAF
KSTJ 121724Z 1218/1318 20010G20KT P6SM SCT150
     FM130000 18006KT P6SM SCT050
     FM130600 24008KT P6SM VCTS BKN050CB
      TEMPO 1308/1312 6SM -TSRA BR BKN030CB
     FM131300 34005KT P6SM SCT020=

USA.gov is the U.S. government's official web portal to all federal, state and local government web resources and services.